sensor_id;sensor_type;location;lat;lon;timestamp;temperature;humidity
38995;DHT22;24769;18.712;99.000;2023-02-18T00:01:27;17.10;99.90
38995;DHT22;24769;18.712;99.000;2023-02-18T00:03:56;17.00;99.90
38995;DHT22;24769;18.712;99.000;2023-02-18T00:06:26;17.00;99.90
38995;DHT22;24769;18.712;99.000;2023-02-18T00:08:54;16.90;99.90
38995;DHT22;24769;18.712;99.000;2023-02-18T00:11:22;16.90;99.90
38995;DHT22;24769;18.712;99.000;2023-02-18T00:13:50;16.90;99.90
38995;DHT22;24769;18.712;99.000;2023-02-18T00:16:17;16.90;99.90
38995;DHT22;24769;18.712;99.000;2023-02-18T00:18:44;16.90;99.90
38995;DHT22;24769;18.712;99.000;2023-02-18T00:21:11;16.90;99.90
38995;DHT22;24769;18.712;99.000;2023-02-18T00:23:39;16.90;99.90
38995;DHT22;24769;18.712;99.000;2023-02-18T00:26:10;16.90;99.90
38995;DHT22;24769;18.712;99.000;2023-02-18T00:28:36;16.90;99.90
38995;DHT22;24769;18.712;99.000;2023-02-18T00:31:08;16.90;99.90
38995;DHT22;24769;18.712;99.000;2023-02-18T00:33:35;17.00;99.90
38995;DHT22;24769;18.712;99.000;2023-02-18T00:36:04;16.90;99.90
38995;DHT22;24769;18.712;99.000;2023-02-18T00:38:32;17.00;99.90
38995;DHT22;24769;18.712;99.000;2023-02-18T00:40:58;17.10;99.90
38995;DHT22;24769;18.712;99.000;2023-02-18T00:43:25;17.00;99.90
38995;DHT22;24769;18.712;99.000;2023-02-18T00:45:52;17.20;99.90
38995;DHT22;24769;18.712;99.000;2023-02-18T00:48:19;17.40;99.90
38995;DHT22;24769;18.712;99.000;2023-02-18T00:50:46;17.50;99.90
38995;DHT22;24769;18.712;99.000;2023-02-18T00:53:13;17.80;99.90
38995;DHT22;24769;18.712;99.000;2023-02-18T00:55:44;18.00;99.90
38995;DHT22;24769;18.712;99.000;2023-02-18T00:58:13;18.20;99.90
38995;DHT22;24769;18.712;99.000;2023-02-18T01:00:41;18.40;99.90
38995;DHT22;24769;18.712;99.000;2023-02-18T01:03:08;18.60;99.90
38995;DHT22;24769;18.712;99.000;2023-02-18T01:05:35;18.70;99.90
38995;DHT22;24769;18.712;99.000;2023-02-18T01:08:03;18.90;99.90
38995;DHT22;24769;18.712;99.000;2023-02-18T01:10:30;19.10;99.90
38995;DHT22;24769;18.712;99.000;2023-02-18T01:12:56;19.10;99.90
38995;DHT22;24769;18.712;99.000;2023-02-18T01:15:23;19.20;99.90
38995;DHT22;24769;18.712;99.000;2023-02-18T01:17:50;19.40;99.90
38995;DHT22;24769;18.712;99.000;2023-02-18T01:20:17;19.50;99.90
38995;DHT22;24769;18.712;99.000;2023-02-18T01:22:44;19.50;99.90
38995;DHT22;24769;18.712;99.000;2023-02-18T01:25:11;19.60;99.90
38995;DHT22;24769;18.712;99.000;2023-02-18T01:27:38;19.80;99.90
38995;DHT22;24769;18.712;99.000;2023-02-18T01:30:05;19.90;99.90
38995;DHT22;24769;18.712;99.000;2023-02-18T01:32:32;20.00;99.90
38995;DHT22;24769;18.712;99.000;2023-02-18T01:35:04;20.20;99.90
38995;DHT22;24769;18.712;99.000;2023-02-18T01:37:31;20.40;99.90
38995;DHT22;24769;18.712;99.000;2023-02-18T01:39:58;20.10;99.90
38995;DHT22;24769;18.712;99.000;2023-02-18T01:42:27;20.10;99.90
38995;DHT22;24769;18.712;99.000;2023-02-18T01:45:26;20.10;99.90
38995;DHT22;24769;18.712;99.000;2023-02-18T01:47:41;20.00;99.90
38995;DHT22;24769;18.712;99.000;2023-02-18T01:50:07;20.20;99.90
38995;DHT22;24769;18.712;99.000;2023-02-18T01:52:34;20.30;99.90
38995;DHT22;24769;18.712;99.000;2023-02-18T01:55:01;20.60;99.90
38995;DHT22;24769;18.712;99.000;2023-02-18T01:57:34;20.60;99.90
38995;DHT22;24769;18.712;99.000;2023-02-18T02:00:12;20.50;99.90
38995;DHT22;24769;18.712;99.000;2023-02-18T02:02:41;20.50;99.90
38995;DHT22;24769;18.712;99.000;2023-02-18T02:05:10;20.50;99.90
38995;DHT22;24769;18.712;99.000;2023-02-18T02:07:36;20.70;99.90
38995;DHT22;24769;18.712;99.000;2023-02-18T02:10:04;20.70;99.90
38995;DHT22;24769;18.712;99.000;2023-02-18T02:13:06;20.60;99.90
38995;DHT22;24769;18.712;99.000;2023-02-18T02:15:52;20.40;99.90
38995;DHT22;24769;18.712;99.000;2023-02-18T02:18:35;21.00;99.90
38995;DHT22;24769;18.712;99.000;2023-02-18T02:24:51;21.70;99.90
38995;DHT22;24769;18.712;99.000;2023-02-18T02:30:26;22.70;99.90
38995;DHT22;24769;18.712;99.000;2023-02-18T02:36:04;22.70;99.90
38995;DHT22;24769;18.712;99.000;2023-02-18T02:38:43;22.20;99.90
38995;DHT22;24769;18.712;99.000;2023-02-18T02:50:46;23.40;99.90
38995;DHT22;24769;18.712;99.000;2023-02-18T02:53:25;23.40;93.90
38995;DHT22;24769;18.712;99.000;2023-02-18T02:55:52;23.60;95.50
38995;DHT22;24769;18.712;99.000;2023-02-18T02:58:21;23.60;94.40
38995;DHT22;24769;18.712;99.000;2023-02-18T03:04:02;24.40;90.30
38995;DHT22;24769;18.712;99.000;2023-02-18T03:14:29;24.40;77.90
38995;DHT22;24769;18.712;99.000;2023-02-18T03:17:10;24.50;79.00
38995;DHT22;24769;18.712;99.000;2023-02-18T03:19:43;24.20;82.60
38995;DHT22;24769;18.712;99.000;2023-02-18T03:22:26;24.20;81.10
38995;DHT22;24769;18.712;99.000;2023-02-18T03:24:55;24.60;77.00
38995;DHT22;24769;18.712;99.000;2023-02-18T03:32:40;24.50;71.10
38995;DHT22;24769;18.712;99.000;2023-02-18T03:35:18;24.50;72.80
38995;DHT22;24769;18.712;99.000;2023-02-18T03:37:55;24.60;70.80
38995;DHT22;24769;18.712;99.000;2023-02-18T03:40:30;24.80;68.90
38995;DHT22;24769;18.712;99.000;2023-02-18T03:42:57;24.90;68.60
38995;DHT22;24769;18.712;99.000;2023-02-18T03:45:25;24.90;68.20
38995;DHT22;24769;18.712;99.000;2023-02-18T03:47:52;24.80;66.40
38995;DHT22;24769;18.712;99.000;2023-02-18T03:50:19;24.80;66.10
38995;DHT22;24769;18.712;99.000;2023-02-18T03:52:45;25.00;64.70
38995;DHT22;24769;18.712;99.000;2023-02-18T03:55:12;25.10;66.70
38995;DHT22;24769;18.712;99.000;2023-02-18T03:57:39;25.30;63.90
38995;DHT22;24769;18.712;99.000;2023-02-18T04:00:06;25.20;61.40
38995;DHT22;24769;18.712;99.000;2023-02-18T04:02:33;25.10;58.70
38995;DHT22;24769;18.712;99.000;2023-02-18T04:05:00;25.50;61.50
38995;DHT22;24769;18.712;99.000;2023-02-18T04:07:26;25.70;59.40
38995;DHT22;24769;18.712;99.000;2023-02-18T04:09:53;26.00;58.30
38995;DHT22;24769;18.712;99.000;2023-02-18T04:12:20;25.80;56.20
38995;DHT22;24769;18.712;99.000;2023-02-18T04:14:46;25.40;58.70
38995;DHT22;24769;18.712;99.000;2023-02-18T04:17:13;25.80;58.00
38995;DHT22;24769;18.712;99.000;2023-02-18T04:19:39;25.90;55.10
38995;DHT22;24769;18.712;99.000;2023-02-18T04:22:06;25.90;53.90
38995;DHT22;24769;18.712;99.000;2023-02-18T04:24:33;25.80;55.80
38995;DHT22;24769;18.712;99.000;2023-02-18T04:26:59;26.10;53.20
38995;DHT22;24769;18.712;99.000;2023-02-18T04:29:26;26.00;54.20
38995;DHT22;24769;18.712;99.000;2023-02-18T04:31:52;26.10;50.50
38995;DHT22;24769;18.712;99.000;2023-02-18T04:34:19;26.00;52.00
38995;DHT22;24769;18.712;99.000;2023-02-18T04:36:46;26.60;51.00
38995;DHT22;24769;18.712;99.000;2023-02-18T04:39:13;26.60;45.50
38995;DHT22;24769;18.712;99.000;2023-02-18T04:41:39;26.90;46.50
38995;DHT22;24769;18.712;99.000;2023-02-18T04:44:06;27.30;44.30
38995;DHT22;24769;18.712;99.000;2023-02-18T04:46:32;27.20;45.30
38995;DHT22;24769;18.712;99.000;2023-02-18T04:48:59;27.30;45.30
38995;DHT22;24769;18.712;99.000;2023-02-18T04:51:26;27.00;43.40
38995;DHT22;24769;18.712;99.000;2023-02-18T04:53:52;27.00;45.20
38995;DHT22;24769;18.712;99.000;2023-02-18T04:56:19;27.20;44.60
38995;DHT22;24769;18.712;99.000;2023-02-18T04:58:45;27.30;43.60
38995;DHT22;24769;18.712;99.000;2023-02-18T05:01:12;27.30;44.30
38995;DHT22;24769;18.712;99.000;2023-02-18T05:03:39;27.40;44.20
38995;DHT22;24769;18.712;99.000;2023-02-18T05:06:06;27.60;43.20
38995;DHT22;24769;18.712;99.000;2023-02-18T05:08:32;27.70;42.10
38995;DHT22;24769;18.712;99.000;2023-02-18T05:10:59;27.10;43.60
38995;DHT22;24769;18.712;99.000;2023-02-18T05:13:26;27.20;42.90
38995;DHT22;24769;18.712;99.000;2023-02-18T05:15:52;27.20;42.40
38995;DHT22;24769;18.712;99.000;2023-02-18T05:18:19;27.00;43.60
38995;DHT22;24769;18.712;99.000;2023-02-18T05:20:45;27.20;44.30
38995;DHT22;24769;18.712;99.000;2023-02-18T05:23:12;27.10;41.50
38995;DHT22;24769;18.712;99.000;2023-02-18T05:25:39;27.50;36.80
38995;DHT22;24769;18.712;99.000;2023-02-18T05:28:06;27.40;38.70
38995;DHT22;24769;18.712;99.000;2023-02-18T05:30:32;27.40;37.60
38995;DHT22;24769;18.712;99.000;2023-02-18T05:32:59;27.70;37.20
38995;DHT22;24769;18.712;99.000;2023-02-18T05:35:26;27.70;39.00
38995;DHT22;24769;18.712;99.000;2023-02-18T05:37:52;28.00;38.50
38995;DHT22;24769;18.712;99.000;2023-02-18T05:40:19;28.10;36.60
38995;DHT22;24769;18.712;99.000;2023-02-18T05:42:45;28.00;38.30
38995;DHT22;24769;18.712;99.000;2023-02-18T05:45:12;28.10;35.50
38995;DHT22;24769;18.712;99.000;2023-02-18T05:47:39;28.20;36.00
38995;DHT22;24769;18.712;99.000;2023-02-18T05:50:06;28.30;35.00
38995;DHT22;24769;18.712;99.000;2023-02-18T05:52:33;28.40;34.30
38995;DHT22;24769;18.712;99.000;2023-02-18T05:54:59;28.60;35.50
38995;DHT22;24769;18.712;99.000;2023-02-18T05:57:26;28.30;33.70
38995;DHT22;24769;18.712;99.000;2023-02-18T05:59:52;28.60;31.70
38995;DHT22;24769;18.712;99.000;2023-02-18T06:02:19;28.70;31.50
38995;DHT22;24769;18.712;99.000;2023-02-18T06:04:46;28.20;31.40
38995;DHT22;24769;18.712;99.000;2023-02-18T06:07:12;27.70;33.80
38995;DHT22;24769;18.712;99.000;2023-02-18T06:09:39;28.10;33.40
38995;DHT22;24769;18.712;99.000;2023-02-18T06:12:06;28.20;32.10
38995;DHT22;24769;18.712;99.000;2023-02-18T06:14:32;28.60;32.50
38995;DHT22;24769;18.712;99.000;2023-02-18T06:16:59;28.30;32.80
38995;DHT22;24769;18.712;99.000;2023-02-18T06:19:26;28.60;33.60
38995;DHT22;24769;18.712;99.000;2023-02-18T06:21:52;29.20;31.40
38995;DHT22;24769;18.712;99.000;2023-02-18T06:24:21;29.10;31.50
38995;DHT22;24769;18.712;99.000;2023-02-18T06:26:47;29.30;29.50
38995;DHT22;24769;18.712;99.000;2023-02-18T06:29:14;29.20;29.20
38995;DHT22;24769;18.712;99.000;2023-02-18T06:31:40;28.90;29.10
38995;DHT22;24769;18.712;99.000;2023-02-18T06:34:07;28.80;29.70
38995;DHT22;24769;18.712;99.000;2023-02-18T06:36:34;28.80;28.80
38995;DHT22;24769;18.712;99.000;2023-02-18T06:39:03;29.10;30.00
38995;DHT22;24769;18.712;99.000;2023-02-18T06:41:29;29.20;30.30
38995;DHT22;24769;18.712;99.000;2023-02-18T06:43:56;29.10;30.00
38995;DHT22;24769;18.712;99.000;2023-02-18T06:46:23;29.10;29.50
38995;DHT22;24769;18.712;99.000;2023-02-18T06:48:50;29.20;29.90
38995;DHT22;24769;18.712;99.000;2023-02-18T06:51:16;29.40;29.30
38995;DHT22;24769;18.712;99.000;2023-02-18T06:53:45;29.40;27.90
38995;DHT22;24769;18.712;99.000;2023-02-18T06:56:11;29.30;27.40
38995;DHT22;24769;18.712;99.000;2023-02-18T06:58:38;29.40;28.90
38995;DHT22;24769;18.712;99.000;2023-02-18T07:01:05;29.10;29.10
38995;DHT22;24769;18.712;99.000;2023-02-18T07:03:31;29.30;28.90
38995;DHT22;24769;18.712;99.000;2023-02-18T07:05:58;29.20;28.30
38995;DHT22;24769;18.712;99.000;2023-02-18T07:08:25;29.50;28.10
38995;DHT22;24769;18.712;99.000;2023-02-18T07:10:52;29.40;28.00
38995;DHT22;24769;18.712;99.000;2023-02-18T07:13:18;29.30;28.30
38995;DHT22;24769;18.712;99.000;2023-02-18T07:15:45;29.10;29.30
38995;DHT22;24769;18.712;99.000;2023-02-18T07:18:11;29.20;29.20
38995;DHT22;24769;18.712;99.000;2023-02-18T07:20:40;29.20;28.00
38995;DHT22;24769;18.712;99.000;2023-02-18T07:23:06;29.60;27.90
38995;DHT22;24769;18.712;99.000;2023-02-18T07:25:34;29.60;27.60
38995;DHT22;24769;18.712;99.000;2023-02-18T07:28:00;29.40;27.20
38995;DHT22;24769;18.712;99.000;2023-02-18T07:30:27;29.50;27.50
38995;DHT22;24769;18.712;99.000;2023-02-18T07:32:53;29.60;27.70
38995;DHT22;24769;18.712;99.000;2023-02-18T07:35:20;29.80;27.70
38995;DHT22;24769;18.712;99.000;2023-02-18T07:37:47;29.70;26.70
38995;DHT22;24769;18.712;99.000;2023-02-18T07:40:17;29.50;27.80
38995;DHT22;24769;18.712;99.000;2023-02-18T07:42:44;29.50;27.10
38995;DHT22;24769;18.712;99.000;2023-02-18T07:45:11;29.40;26.80
38995;DHT22;24769;18.712;99.000;2023-02-18T07:47:37;29.50;26.90
38995;DHT22;24769;18.712;99.000;2023-02-18T07:50:05;29.80;25.10
38995;DHT22;24769;18.712;99.000;2023-02-18T07:52:31;29.70;24.80
38995;DHT22;24769;18.712;99.000;2023-02-18T07:54:58;29.80;25.90
38995;DHT22;24769;18.712;99.000;2023-02-18T07:57:25;29.70;23.90
38995;DHT22;24769;18.712;99.000;2023-02-18T07:59:51;29.50;26.20
38995;DHT22;24769;18.712;99.000;2023-02-18T08:02:20;29.60;26.10
38995;DHT22;24769;18.712;99.000;2023-02-18T08:04:47;29.60;26.50
38995;DHT22;24769;18.712;99.000;2023-02-18T08:07:16;29.60;26.40
38995;DHT22;24769;18.712;99.000;2023-02-18T08:09:43;29.70;26.20
38995;DHT22;24769;18.712;99.000;2023-02-18T08:12:09;29.70;24.10
38995;DHT22;24769;18.712;99.000;2023-02-18T08:14:36;29.70;24.70
38995;DHT22;24769;18.712;99.000;2023-02-18T08:17:02;29.70;24.30
38995;DHT22;24769;18.712;99.000;2023-02-18T08:19:29;29.60;24.80
38995;DHT22;24769;18.712;99.000;2023-02-18T08:21:56;29.50;23.90
38995;DHT22;24769;18.712;99.000;2023-02-18T08:24:26;29.50;24.70
38995;DHT22;24769;18.712;99.000;2023-02-18T08:26:52;29.90;23.60
38995;DHT22;24769;18.712;99.000;2023-02-18T08:29:19;29.50;22.50
38995;DHT22;24769;18.712;99.000;2023-02-18T08:31:45;29.40;23.50
38995;DHT22;24769;18.712;99.000;2023-02-18T08:34:12;29.50;22.90
38995;DHT22;24769;18.712;99.000;2023-02-18T08:36:38;29.40;22.80
38995;DHT22;24769;18.712;99.000;2023-02-18T08:39:05;29.40;25.40
38995;DHT22;24769;18.712;99.000;2023-02-18T08:41:32;29.70;22.50
38995;DHT22;24769;18.712;99.000;2023-02-18T08:43:58;29.60;23.30
38995;DHT22;24769;18.712;99.000;2023-02-18T08:46:25;29.90;23.70
38995;DHT22;24769;18.712;99.000;2023-02-18T08:48:51;29.90;24.50
38995;DHT22;24769;18.712;99.000;2023-02-18T08:51:21;29.90;23.20
38995;DHT22;24769;18.712;99.000;2023-02-18T08:53:48;29.80;22.80
38995;DHT22;24769;18.712;99.000;2023-02-18T08:56:15;29.70;23.00
38995;DHT22;24769;18.712;99.000;2023-02-18T08:58:42;29.70;23.50
38995;DHT22;24769;18.712;99.000;2023-02-18T09:01:10;29.70;22.50
38995;DHT22;24769;18.712;99.000;2023-02-18T09:03:38;29.50;23.30
38995;DHT22;24769;18.712;99.000;2023-02-18T09:06:05;29.70;22.70
38995;DHT22;24769;18.712;99.000;2023-02-18T09:08:32;29.70;24.10
38995;DHT22;24769;18.712;99.000;2023-02-18T09:11:00;29.60;22.90
38995;DHT22;24769;18.712;99.000;2023-02-18T09:13:29;29.60;22.10
38995;DHT22;24769;18.712;99.000;2023-02-18T09:16:00;29.60;21.80
38995;DHT22;24769;18.712;99.000;2023-02-18T09:18:28;29.50;21.50
38995;DHT22;24769;18.712;99.000;2023-02-18T09:20:56;29.50;21.20
38995;DHT22;24769;18.712;99.000;2023-02-18T09:23:25;29.40;21.60
38995;DHT22;24769;18.712;99.000;2023-02-18T09:25:52;29.40;22.10
38995;DHT22;24769;18.712;99.000;2023-02-18T09:28:19;29.30;21.10
38995;DHT22;24769;18.712;99.000;2023-02-18T09:30:46;29.50;21.30
38995;DHT22;24769;18.712;99.000;2023-02-18T09:33:13;29.50;21.90
38995;DHT22;24769;18.712;99.000;2023-02-18T09:35:40;29.30;21.40
38995;DHT22;24769;18.712;99.000;2023-02-18T09:38:09;29.20;20.90
38995;DHT22;24769;18.712;99.000;2023-02-18T09:40:41;29.20;21.80
38995;DHT22;24769;18.712;99.000;2023-02-18T09:43:29;29.10;21.20
38995;DHT22;24769;18.712;99.000;2023-02-18T09:46:00;29.10;21.70
38995;DHT22;24769;18.712;99.000;2023-02-18T09:48:31;29.10;21.90
38995;DHT22;24769;18.712;99.000;2023-02-18T09:50:58;29.00;20.20
38995;DHT22;24769;18.712;99.000;2023-02-18T09:53:25;28.80;21.10
38995;DHT22;24769;18.712;99.000;2023-02-18T09:55:55;28.80;20.50
38995;DHT22;24769;18.712;99.000;2023-02-18T09:58:29;28.80;20.90
38995;DHT22;24769;18.712;99.000;2023-02-18T10:03:41;28.70;21.00
38995;DHT22;24769;18.712;99.000;2023-02-18T10:06:21;28.60;20.90
38995;DHT22;24769;18.712;99.000;2023-02-18T10:08:51;28.70;20.20
38995;DHT22;24769;18.712;99.000;2023-02-18T10:11:29;28.60;21.50
38995;DHT22;24769;18.712;99.000;2023-02-18T10:13:57;28.40;22.60
38995;DHT22;24769;18.712;99.000;2023-02-18T10:16:26;28.30;23.80
38995;DHT22;24769;18.712;99.000;2023-02-18T10:18:57;28.20;23.70
38995;DHT22;24769;18.712;99.000;2023-02-18T10:21:27;28.20;23.50
38995;DHT22;24769;18.712;99.000;2023-02-18T10:23:59;28.00;24.10
38995;DHT22;24769;18.712;99.000;2023-02-18T10:26:29;28.00;25.10
38995;DHT22;24769;18.712;99.000;2023-02-18T10:28:57;27.90;25.70
38995;DHT22;24769;18.712;99.000;2023-02-18T10:31:34;27.70;26.30
38995;DHT22;24769;18.712;99.000;2023-02-18T10:34:07;28.00;21.60
38995;DHT22;24769;18.712;99.000;2023-02-18T10:37:00;27.80;24.30
38995;DHT22;24769;18.712;99.000;2023-02-18T10:52:51;26.80;30.10
38995;DHT22;24769;18.712;99.000;2023-02-18T10:55:37;26.80;30.50
38995;DHT22;24769;18.712;99.000;2023-02-18T11:00:50;26.60;31.90
38995;DHT22;24769;18.712;99.000;2023-02-18T11:03:20;26.50;28.80
38995;DHT22;24769;18.712;99.000;2023-02-18T11:05:54;26.40;28.70
38995;DHT22;24769;18.712;99.000;2023-02-18T11:08:26;26.30;29.80
38995;DHT22;24769;18.712;99.000;2023-02-18T11:10:54;26.10;31.20
38995;DHT22;24769;18.712;99.000;2023-02-18T11:13:29;25.90;32.10
38995;DHT22;24769;18.712;99.000;2023-02-18T11:16:05;25.60;33.60
38995;DHT22;24769;18.712;99.000;2023-02-18T11:24:09;25.00;40.20
38995;DHT22;24769;18.712;99.000;2023-02-18T11:26:39;24.80;43.20
38995;DHT22;24769;18.712;99.000;2023-02-18T11:29:21;24.60;44.70
38995;DHT22;24769;18.712;99.000;2023-02-18T11:31:51;24.30;45.90
38995;DHT22;24769;18.712;99.000;2023-02-18T11:34:25;24.20;47.40
38995;DHT22;24769;18.712;99.000;2023-02-18T11:36:53;24.10;46.40
38995;DHT22;24769;18.712;99.000;2023-02-18T11:39:27;24.00;45.80
38995;DHT22;24769;18.712;99.000;2023-02-18T11:42:13;23.90;46.10
38995;DHT22;24769;18.712;99.000;2023-02-18T11:44:55;23.90;46.90
38995;DHT22;24769;18.712;99.000;2023-02-18T11:52:40;23.60;52.30
38995;DHT22;24769;18.712;99.000;2023-02-18T12:00:24;23.40;54.80
38995;DHT22;24769;18.712;99.000;2023-02-18T12:02:58;23.30;54.60
38995;DHT22;24769;18.712;99.000;2023-02-18T12:05:28;23.30;54.70
38995;DHT22;24769;18.712;99.000;2023-02-18T12:08:10;23.20;56.00
38995;DHT22;24769;18.712;99.000;2023-02-18T12:10:45;23.00;57.30
38995;DHT22;24769;18.712;99.000;2023-02-18T12:24:42;22.80;58.60
38995;DHT22;24769;18.712;99.000;2023-02-18T12:27:28;22.70;58.60
38995;DHT22;24769;18.712;99.000;2023-02-18T12:44:28;22.30;63.70
38995;DHT22;24769;18.712;99.000;2023-02-18T12:57:49;22.20;67.70
38995;DHT22;24769;18.712;99.000;2023-02-18T13:05:55;22.00;68.40
38995;DHT22;24769;18.712;99.000;2023-02-18T13:14:03;21.80;72.30
38995;DHT22;24769;18.712;99.000;2023-02-18T13:16:34;21.70;74.10
38995;DHT22;24769;18.712;99.000;2023-02-18T13:19:18;21.60;74.40
38995;DHT22;24769;18.712;99.000;2023-02-18T13:21:49;21.60;74.20
38995;DHT22;24769;18.712;99.000;2023-02-18T13:24:38;21.60;76.60
38995;DHT22;24769;18.712;99.000;2023-02-18T13:27:12;21.50;77.70
38995;DHT22;24769;18.712;99.000;2023-02-18T13:35:42;22.10;73.90
38995;DHT22;24769;18.712;99.000;2023-02-18T13:40:52;22.00;74.90
38995;DHT22;24769;18.712;99.000;2023-02-18T13:43:30;21.90;75.30
38995;DHT22;24769;18.712;99.000;2023-02-18T13:46:10;21.70;76.50
38995;DHT22;24769;18.712;99.000;2023-02-18T13:51:43;21.40;79.30
38995;DHT22;24769;18.712;99.000;2023-02-18T13:56:59;21.30;80.80
38995;DHT22;24769;18.712;99.000;2023-02-18T13:59:43;21.30;81.20
38995;DHT22;24769;18.712;99.000;2023-02-18T14:33:49;20.60;97.00
38995;DHT22;24769;18.712;99.000;2023-02-18T14:42:17;20.40;99.70
38995;DHT22;24769;18.712;99.000;2023-02-18T14:44:58;20.30;99.90
38995;DHT22;24769;18.712;99.000;2023-02-18T14:50:18;20.20;99.90
38995;DHT22;24769;18.712;99.000;2023-02-18T14:52:55;20.10;99.90
38995;DHT22;24769;18.712;99.000;2023-02-18T14:57:56;20.00;99.50
38995;DHT22;24769;18.712;99.000;2023-02-18T15:00:28;20.10;99.30
38995;DHT22;24769;18.712;99.000;2023-02-18T15:02:59;20.10;99.30
38995;DHT22;24769;18.712;99.000;2023-02-18T15:05:28;20.00;99.90
38995;DHT22;24769;18.712;99.000;2023-02-18T15:08:00;20.10;99.90
38995;DHT22;24769;18.712;99.000;2023-02-18T15:10:41;20.10;99.90
38995;DHT22;24769;18.712;99.000;2023-02-18T15:13:19;20.00;99.90
38995;DHT22;24769;18.712;99.000;2023-02-18T15:15:51;20.00;99.90
38995;DHT22;24769;18.712;99.000;2023-02-18T15:21:06;19.90;99.90
38995;DHT22;24769;18.712;99.000;2023-02-18T15:23:38;19.90;99.90
38995;DHT22;24769;18.712;99.000;2023-02-18T15:26:06;19.70;99.90
38995;DHT22;24769;18.712;99.000;2023-02-18T15:28:42;19.70;99.90
38995;DHT22;24769;18.712;99.000;2023-02-18T15:31:16;19.70;99.90
38995;DHT22;24769;18.712;99.000;2023-02-18T15:33:45;19.70;99.90
38995;DHT22;24769;18.712;99.000;2023-02-18T15:36:14;19.70;99.90
38995;DHT22;24769;18.712;99.000;2023-02-18T15:38:40;19.60;99.90
38995;DHT22;24769;18.712;99.000;2023-02-18T15:41:13;19.50;99.90
38995;DHT22;24769;18.712;99.000;2023-02-18T15:44:02;19.50;99.90
38995;DHT22;24769;18.712;99.000;2023-02-18T15:46:31;19.40;99.90
38995;DHT22;24769;18.712;99.000;2023-02-18T15:48:58;19.40;99.90
38995;DHT22;24769;18.712;99.000;2023-02-18T15:51:27;19.40;99.90
38995;DHT22;24769;18.712;99.000;2023-02-18T15:54:00;19.30;99.90
38995;DHT22;24769;18.712;99.000;2023-02-18T15:56:43;19.40;99.90
38995;DHT22;24769;18.712;99.000;2023-02-18T16:01:55;19.30;99.90
38995;DHT22;24769;18.712;99.000;2023-02-18T16:04:27;19.20;99.90
38995;DHT22;24769;18.712;99.000;2023-02-18T16:06:55;19.10;99.90
38995;DHT22;24769;18.712;99.000;2023-02-18T16:09:33;19.20;99.90
38995;DHT22;24769;18.712;99.000;2023-02-18T16:12:05;19.20;99.90
38995;DHT22;24769;18.712;99.000;2023-02-18T16:14:47;19.10;99.90
38995;DHT22;24769;18.712;99.000;2023-02-18T16:17:21;19.10;99.90
38995;DHT22;24769;18.712;99.000;2023-02-18T16:20:00;19.10;99.90
38995;DHT22;24769;18.712;99.000;2023-02-18T16:25:23;19.10;99.90
38995;DHT22;24769;18.712;99.000;2023-02-18T16:27:49;19.10;99.90
38995;DHT22;24769;18.712;99.000;2023-02-18T16:30:22;19.10;99.90
38995;DHT22;24769;18.712;99.000;2023-02-18T16:32:49;19.20;99.90
38995;DHT22;24769;18.712;99.000;2023-02-18T16:35:17;19.10;99.90
38995;DHT22;24769;18.712;99.000;2023-02-18T16:37:45;19.00;99.90
38995;DHT22;24769;18.712;99.000;2023-02-18T16:40:26;18.90;99.90
38995;DHT22;24769;18.712;99.000;2023-02-18T16:42:54;18.80;99.90
38995;DHT22;24769;18.712;99.000;2023-02-18T16:45:35;18.80;99.90
38995;DHT22;24769;18.712;99.000;2023-02-18T16:48:04;18.80;99.90
38995;DHT22;24769;18.712;99.000;2023-02-18T16:50:32;18.70;99.90
38995;DHT22;24769;18.712;99.000;2023-02-18T16:53:00;18.70;99.90
38995;DHT22;24769;18.712;99.000;2023-02-18T16:55:28;18.70;99.90
38995;DHT22;24769;18.712;99.000;2023-02-18T16:57:55;18.60;99.90
38995;DHT22;24769;18.712;99.000;2023-02-18T17:00:22;18.60;99.90
38995;DHT22;24769;18.712;99.000;2023-02-18T17:02:52;18.60;99.90
38995;DHT22;24769;18.712;99.000;2023-02-18T17:05:22;18.50;99.90
38995;DHT22;24769;18.712;99.000;2023-02-18T17:07:50;18.60;99.90
38995;DHT22;24769;18.712;99.000;2023-02-18T17:10:17;18.60;99.90
38995;DHT22;24769;18.712;99.000;2023-02-18T17:12:43;18.60;99.90
38995;DHT22;24769;18.712;99.000;2023-02-18T17:15:33;18.60;99.90
38995;DHT22;24769;18.712;99.000;2023-02-18T17:18:00;18.60;99.90
38995;DHT22;24769;18.712;99.000;2023-02-18T17:20:31;18.60;99.90
38995;DHT22;24769;18.712;99.000;2023-02-18T17:22:58;18.50;99.90
38995;DHT22;24769;18.712;99.000;2023-02-18T17:25:38;18.50;99.90
38995;DHT22;24769;18.712;99.000;2023-02-18T17:28:06;18.40;99.90
38995;DHT22;24769;18.712;99.000;2023-02-18T17:30:36;18.30;99.90
38995;DHT22;24769;18.712;99.000;2023-02-18T17:33:05;18.40;99.90
38995;DHT22;24769;18.712;99.000;2023-02-18T17:35:33;18.40;99.90
38995;DHT22;24769;18.712;99.000;2023-02-18T17:37:59;18.30;99.90
38995;DHT22;24769;18.712;99.000;2023-02-18T17:40:27;18.30;99.90
38995;DHT22;24769;18.712;99.000;2023-02-18T17:42:55;18.30;99.90
38995;DHT22;24769;18.712;99.000;2023-02-18T17:45:33;18.20;99.90
38995;DHT22;24769;18.712;99.000;2023-02-18T17:48:00;18.20;99.90
38995;DHT22;24769;18.712;99.000;2023-02-18T17:50:28;18.20;99.90
38995;DHT22;24769;18.712;99.000;2023-02-18T17:52:55;18.20;99.90
38995;DHT22;24769;18.712;99.000;2023-02-18T17:55:23;18.20;99.90
38995;DHT22;24769;18.712;99.000;2023-02-18T17:57:51;18.10;99.90
38995;DHT22;24769;18.712;99.000;2023-02-18T18:00:21;18.00;99.90
38995;DHT22;24769;18.712;99.000;2023-02-18T18:02:50;18.20;99.90
38995;DHT22;24769;18.712;99.000;2023-02-18T18:05:19;18.10;99.90
38995;DHT22;24769;18.712;99.000;2023-02-18T18:07:50;18.20;99.90
38995;DHT22;24769;18.712;99.000;2023-02-18T18:10:18;18.20;99.90
38995;DHT22;24769;18.712;99.000;2023-02-18T18:12:48;18.10;99.90
38995;DHT22;24769;18.712;99.000;2023-02-18T18:17:47;18.10;99.90
38995;DHT22;24769;18.712;99.000;2023-02-18T18:20:14;18.00;99.90
38995;DHT22;24769;18.712;99.000;2023-02-18T18:22:41;18.00;99.90
38995;DHT22;24769;18.712;99.000;2023-02-18T18:27:43;17.80;99.90
38995;DHT22;24769;18.712;99.000;2023-02-18T18:30:10;17.80;99.90
38995;DHT22;24769;18.712;99.000;2023-02-18T18:32:37;17.80;99.90
38995;DHT22;24769;18.712;99.000;2023-02-18T18:37:46;17.90;99.90
38995;DHT22;24769;18.712;99.000;2023-02-18T18:40:13;17.80;99.90
38995;DHT22;24769;18.712;99.000;2023-02-18T18:42:39;17.70;99.90